Time;durP1;ratioP1;P1;durP2;ratioP2;P2;SDS_P1;SDS_P2;PMS_P1;PMS_P2;Temp;Humidity;BMP_temperature;BMP_pressure;BME280_temperature;BME280_humidity;BME280_pressure;Samples;Min_cycle;Max_cycle;Signal;HPM_P1;HPM_P2
2022/12/06 00:01:22;;;;;;;43.23;22.97;;;;;;;;;;5050929;28;20204;-81
2022/12/06 00:03:52;;;;;;;35.93;19.07;;;;;;;;;;5051443;28;20203;-81
2022/12/06 00:06:20;;;;;;;35.30;18.37;;;;;;;;;;5050394;28;20223;-81
2022/12/06 00:08:48;;;;;;;34.00;19.37;;;;;;;;;;5051661;28;20199;-82
2022/12/06 00:11:16;;;;;;;31.70;18.47;;;;;;;;;;5052308;28;20201;-81
2022/12/06 00:13:47;;;;;;;32.40;17.73;;;;;;;;;;5051611;28;20201;-81
2022/12/06 00:16:16;;;;;;;30.73;17.43;;;;;;;;;;5052472;28;20200;-81
2022/12/06 00:18:44;;;;;;;31.40;17.50;;;;;;;;;;5051854;28;20230;-81
2022/12/06 00:21:12;;;;;;;32.23;18.27;;;;;;;;;;5051915;28;20560;-81
2022/12/06 00:23:40;;;;;;;32.53;18.27;;;;;;;;;;5052531;28;20204;-81
2022/12/06 00:26:10;;;;;;;33.30;17.93;;;;;;;;;;5052015;28;20207;-81
2022/12/06 00:28:41;;;;;;;31.63;17.77;;;;;;;;;;5051316;28;20663;-82
2022/12/06 00:31:11;;;;;;;31.30;18.40;;;;;;;;;;5050685;28;20196;-81
2022/12/06 00:33:38;;;;;;;32.37;18.93;;;;;;;;;;5051688;28;20208;-81
2022/12/06 00:36:07;;;;;;;32.37;19.07;;;;;;;;;;5051794;28;20203;-81
2022/12/06 00:38:35;;;;;;;32.13;16.87;;;;;;;;;;5051301;28;20236;-81
2022/12/06 00:41:03;;;;;;;31.10;18.40;;;;;;;;;;5051599;28;20207;-81
2022/12/06 00:43:31;;;;;;;33.90;19.33;;;;;;;;;;5051161;28;20205;-82
2022/12/06 00:45:58;;;;;;;32.03;18.40;;;;;;;;;;5035105;28;20204;-82
2022/12/06 00:48:28;;;;;;;32.87;18.57;;;;;;;;;;5052770;28;20222;-81
2022/12/06 00:50:55;;;;;;;32.80;18.90;;;;;;;;;;5056037;28;20204;-82
2022/12/06 00:53:23;;;;;;;33.57;19.10;;;;;;;;;;5056025;28;20203;-81
2022/12/06 00:55:50;;;;;;;30.77;17.70;;;;;;;;;;5054022;28;20200;-81
2022/12/06 00:58:18;;;;;;;33.40;19.53;;;;;;;;;;5054987;28;20187;-81
2022/12/06 01:00:46;;;;;;;35.30;18.47;;;;;;;;;;5055731;28;20200;-81
2022/12/06 01:03:13;;;;;;;31.87;18.43;;;;;;;;;;5054414;28;20201;-81
2022/12/06 01:05:42;;;;;;;29.23;17.50;;;;;;;;;;5054237;28;20223;-81
2022/12/06 01:08:10;;;;;;;35.33;18.50;;;;;;;;;;5055743;28;20224;-82
2022/12/06 01:10:38;;;;;;;35.20;20.23;;;;;;;;;;5055413;28;20210;-81
2022/12/06 01:13:06;;;;;;;34.60;20.27;;;;;;;;;;5055382;28;20219;-81
2022/12/06 01:15:35;;;;;;;33.77;19.47;;;;;;;;;;5055689;28;20239;-81
2022/12/06 01:18:02;;;;;;;34.10;20.13;;;;;;;;;;5055246;28;20227;-81
2022/12/06 01:20:30;;;;;;;36.57;19.83;;;;;;;;;;5055204;28;20640;-81
2022/12/06 01:22:58;;;;;;;32.03;19.23;;;;;;;;;;5055166;28;20262;-81
2022/12/06 01:25:26;;;;;;;31.67;18.57;;;;;;;;;;5054339;28;20735;-81
2022/12/06 01:27:53;;;;;;;36.30;18.50;;;;;;;;;;5054663;28;20308;-81
2022/12/06 01:30:20;;;;;;;38.87;21.27;;;;;;;;;;5054406;28;20247;-81
2022/12/06 01:32:47;;;;;;;38.10;21.53;;;;;;;;;;5055143;28;20204;-81
2022/12/06 01:35:14;;;;;;;38.17;21.17;;;;;;;;;;5054129;28;20302;-81
2022/12/06 01:37:42;;;;;;;39.80;21.47;;;;;;;;;;5054937;28;20256;-81
2022/12/06 01:40:12;;;;;;;43.90;22.80;;;;;;;;;;5054019;28;20287;-81
2022/12/06 01:42:39;;;;;;;45.07;22.87;;;;;;;;;;5055257;28;20284;-81
2022/12/06 01:45:07;;;;;;;42.43;23.10;;;;;;;;;;5054609;28;20207;-81
2022/12/06 01:47:36;;;;;;;45.97;23.37;;;;;;;;;;5054404;28;20307;-81
2022/12/06 01:50:06;;;;;;;47.53;23.30;;;;;;;;;;5054947;28;20290;-82
2022/12/06 01:52:35;;;;;;;42.83;23.00;;;;;;;;;;5054577;28;20446;-81
2022/12/06 01:55:03;;;;;;;44.00;22.83;;;;;;;;;;5054436;28;20631;-81
2022/12/06 01:57:31;;;;;;;43.60;21.23;;;;;;;;;;5055095;28;20226;-82
2022/12/06 01:59:59;;;;;;;40.83;21.00;;;;;;;;;;5053752;28;20761;-81
2022/12/06 02:02:26;;;;;;;40.43;21.73;;;;;;;;;;5053996;28;20711;-81
2022/12/06 02:04:54;;;;;;;41.17;21.63;;;;;;;;;;5054612;28;20226;-81
2022/12/06 02:07:22;;;;;;;39.40;20.40;;;;;;;;;;5053765;28;20216;-81
2022/12/06 02:09:51;;;;;;;39.77;21.10;;;;;;;;;;5054098;28;20227;-81
2022/12/06 02:12:18;;;;;;;40.97;21.47;;;;;;;;;;5053572;28;20227;-81
2022/12/06 02:15:01;;;;;;;41.10;22.13;;;;;;;;;;5054424;28;20229;-82
2022/12/06 02:17:34;;;;;;;40.03;20.97;;;;;;;;;;5017403;28;20211;-81
2022/12/06 02:20:06;;;;;;;42.57;23.23;;;;;;;;;;5050555;28;20282;-82
2022/12/06 02:22:43;;;;;;;42.37;23.70;;;;;;;;;;5052814;28;20204;-81
2022/12/06 02:25:25;;;;;;;39.57;20.60;;;;;;;;;;5054031;28;20199;-81
2022/12/06 02:28:04;;;;;;;41.23;21.40;;;;;;;;;;5053706;28;20251;-81
2022/12/06 02:30:43;;;;;;;41.67;21.83;;;;;;;;;;5053956;28;20318;-81
2022/12/06 02:33:12;;;;;;;44.80;23.30;;;;;;;;;;5053696;28;20200;-81
2022/12/06 02:35:40;;;;;;;41.07;22.13;;;;;;;;;;5054327;28;20206;-81
2022/12/06 02:38:10;;;;;;;41.53;21.77;;;;;;;;;;5052867;28;20255;-82
2022/12/06 02:40:40;;;;;;;39.03;19.83;;;;;;;;;;5053623;28;20688;-81
2022/12/06 02:43:10;;;;;;;38.40;20.90;;;;;;;;;;5052898;28;20223;-81
2022/12/06 02:45:41;;;;;;;37.60;20.43;;;;;;;;;;5040416;28;20287;-81
2022/12/06 02:48:11;;;;;;;37.80;20.27;;;;;;;;;;5053564;28;20361;-81
2022/12/06 02:50:40;;;;;;;36.90;20.07;;;;;;;;;;5054082;28;20216;-81
2022/12/06 02:53:09;;;;;;;37.17;19.77;;;;;;;;;;5053116;28;20284;-82
2022/12/06 02:55:37;;;;;;;38.93;20.13;;;;;;;;;;5053687;28;20233;-81
2022/12/06 02:58:05;;;;;;;38.57;20.00;;;;;;;;;;5053046;28;20227;-82
2022/12/06 03:00:36;;;;;;;36.33;20.60;;;;;;;;;;5053374;28;20242;-81
2022/12/06 03:03:22;;;;;;;35.67;19.47;;;;;;;;;;5052631;28;20621;-82
2022/12/06 03:06:00;;;;;;;38.60;19.13;;;;;;;;;;5043350;28;20207;-81
2022/12/06 03:08:31;;;;;;;35.60;18.23;;;;;;;;;;5052180;28;20350;-82
2022/12/06 03:11:01;;;;;;;38.10;19.83;;;;;;;;;;5053535;28;20683;-82
2022/12/06 03:13:32;;;;;;;35.37;17.97;;;;;;;;;;5052744;28;20291;-81
2022/12/06 03:16:00;;;;;;;33.60;17.37;;;;;;;;;;5053571;28;20291;-81
2022/12/06 03:18:30;;;;;;;34.83;17.43;;;;;;;;;;5052847;28;20262;-81
2022/12/06 03:21:01;;;;;;;31.63;16.77;;;;;;;;;;5052379;28;20651;-82
2022/12/06 03:23:31;;;;;;;32.93;16.33;;;;;;;;;;5052520;28;20280;-81
2022/12/06 03:25:59;;;;;;;32.73;15.93;;;;;;;;;;5053220;28;20286;-82
2022/12/06 03:28:27;;;;;;;29.70;16.23;;;;;;;;;;5052422;28;20223;-81
2022/12/06 03:30:58;;;;;;;30.37;16.13;;;;;;;;;;5053480;28;20295;-81
2022/12/06 03:33:27;;;;;;;30.23;15.90;;;;;;;;;;5052873;28;20257;-81
2022/12/06 03:35:55;;;;;;;34.30;16.83;;;;;;;;;;5052184;28;20208;-81
2022/12/06 03:38:26;;;;;;;32.90;16.33;;;;;;;;;;5052574;28;20634;-81
2022/12/06 03:40:54;;;;;;;33.80;16.03;;;;;;;;;;5052948;28;20235;-81
2022/12/06 03:43:22;;;;;;;31.60;15.63;;;;;;;;;;5052210;28;20622;-81
2022/12/06 03:45:53;;;;;;;34.47;16.53;;;;;;;;;;5052395;28;20207;-81
2022/12/06 03:48:21;;;;;;;29.07;14.97;;;;;;;;;;5052167;28;20703;-81
2022/12/06 03:50:50;;;;;;;32.53;16.30;;;;;;;;;;5052068;28;20286;-81
2022/12/06 03:53:21;;;;;;;32.73;16.20;;;;;;;;;;5052738;28;20229;-81
2022/12/06 03:55:49;;;;;;;30.37;15.27;;;;;;;;;;5052981;28;20289;-82
2022/12/06 03:58:19;;;;;;;31.77;15.07;;;;;;;;;;5052087;28;20204;-81
2022/12/06 04:00:46;;;;;;;31.27;15.37;;;;;;;;;;5052597;28;20747;-82
2022/12/06 04:03:13;;;;;;;31.60;15.20;;;;;;;;;;5051405;28;20716;-81
2022/12/06 04:05:40;;;;;;;29.27;14.77;;;;;;;;;;5052005;28;20234;-82
2022/12/06 04:08:08;;;;;;;29.57;14.70;;;;;;;;;;5051345;28;20661;-82
2022/12/06 04:10:35;;;;;;;28.10;13.57;;;;;;;;;;5051742;28;20234;-81
2022/12/06 04:13:04;;;;;;;28.63;14.50;;;;;;;;;;5052359;28;20254;-81
2022/12/06 04:15:33;;;;;;;28.80;13.80;;;;;;;;;;5051847;28;20701;-81
2022/12/06 04:18:12;;;;;;;25.00;13.27;;;;;;;;;;5052207;28;20291;-82
2022/12/06 04:23:32;;;;;;;25.27;13.40;;;;;;;;;;5052251;28;20191;-81
2022/12/06 04:26:00;;;;;;;26.83;13.83;;;;;;;;;;5052593;28;20690;-81
2022/12/06 04:39:27;;;;;;;25.03;11.83;;;;;;;;;;5051356;28;20224;-83
2022/12/06 04:44:41;;;;;;;21.77;10.70;;;;;;;;;;5032271;28;20204;-82
2022/12/06 04:47:09;;;;;;;23.60;11.30;;;;;;;;;;5032183;28;20227;-82
2022/12/06 04:49:36;;;;;;;22.17;11.00;;;;;;;;;;5043779;28;20224;-82
2022/12/06 04:52:04;;;;;;;24.23;11.37;;;;;;;;;;5051504;28;20630;-82
2022/12/06 04:54:31;;;;;;;22.60;11.73;;;;;;;;;;5051424;28;20231;-82
2022/12/06 04:56:59;;;;;;;24.60;12.40;;;;;;;;;;5051935;28;20243;-82
2022/12/06 04:59:27;;;;;;;26.20;13.20;;;;;;;;;;5051797;28;20192;-82
2022/12/06 05:01:56;;;;;;;27.57;13.10;;;;;;;;;;5051687;28;20227;-82
2022/12/06 05:04:23;;;;;;;25.33;12.93;;;;;;;;;;5051335;28;20239;-82
2022/12/06 05:06:51;;;;;;;24.73;12.43;;;;;;;;;;5051405;28;20374;-82
2022/12/06 05:09:18;;;;;;;25.90;12.73;;;;;;;;;;5051472;28;20598;-82
2022/12/06 05:11:45;;;;;;;22.73;12.00;;;;;;;;;;5051352;28;20253;-81
2022/12/06 05:14:12;;;;;;;30.97;14.13;;;;;;;;;;5052093;28;20243;-82
2022/12/06 05:16:40;;;;;;;29.57;14.20;;;;;;;;;;5051085;28;20753;-82
2022/12/06 05:19:08;;;;;;;30.47;14.77;;;;;;;;;;5050958;28;20277;-81
2022/12/06 05:21:36;;;;;;;32.63;13.90;;;;;;;;;;5051838;28;20664;-82
2022/12/06 05:24:03;;;;;;;32.00;15.17;;;;;;;;;;5051133;28;20235;-82
2022/12/06 05:26:30;;;;;;;34.60;15.60;;;;;;;;;;5051533;28;20565;-83
2022/12/06 05:28:58;;;;;;;32.13;14.47;;;;;;;;;;5051056;28;20303;-82
2022/12/06 05:31:26;;;;;;;32.67;14.40;;;;;;;;;;5053159;28;20709;-82
2022/12/06 05:33:54;;;;;;;34.13;14.20;;;;;;;;;;5055345;28;20235;-82
2022/12/06 05:36:23;;;;;;;29.60;13.47;;;;;;;;;;5055144;28;21149;-82
2022/12/06 05:38:53;;;;;;;30.43;13.67;;;;;;;;;;5054652;28;20652;-82
2022/12/06 05:41:20;;;;;;;30.57;13.20;;;;;;;;;;5054392;28;20218;-82
2022/12/06 05:43:47;;;;;;;25.50;12.63;;;;;;;;;;5055638;28;20206;-82
2022/12/06 05:46:15;;;;;;;24.67;12.13;;;;;;;;;;5053459;28;20220;-82
2022/12/06 05:48:42;;;;;;;25.03;11.73;;;;;;;;;;5054404;28;20791;-82
2022/12/06 05:51:09;;;;;;;27.90;11.23;;;;;;;;;;5055330;28;20245;-82
2022/12/06 05:53:38;;;;;;;23.50;11.67;;;;;;;;;;5054060;28;20299;-81
2022/12/06 05:56:07;;;;;;;23.20;11.50;;;;;;;;;;5053778;28;20555;-83
2022/12/06 05:58:34;;;;;;;20.77;10.67;;;;;;;;;;5053263;28;20577;-82
2022/12/06 06:01:02;;;;;;;24.20;11.83;;;;;;;;;;5054496;28;20196;-82
2022/12/06 06:03:38;;;;;;;21.87;11.40;;;;;;;;;;5053808;28;20227;-82
2022/12/06 06:06:06;;;;;;;21.03;10.60;;;;;;;;;;5060149;28;20285;-87
2022/12/06 06:08:33;;;;;;;17.77;9.80;;;;;;;;;;5052362;28;20219;-86
2022/12/06 06:11:02;;;;;;;20.00;8.73;;;;;;;;;;5055351;28;20631;-87
2022/12/06 06:13:29;;;;;;;20.03;10.20;;;;;;;;;;5054628;28;20207;-86
2022/12/06 06:15:56;;;;;;;23.73;11.47;;;;;;;;;;5054184;28;20631;-86
2022/12/06 06:18:24;;;;;;;22.13;11.60;;;;;;;;;;5055297;28;20199;-87
2022/12/06 06:20:51;;;;;;;29.30;14.03;;;;;;;;;;5055119;28;20222;-87
2022/12/06 06:23:19;;;;;;;36.10;21.17;;;;;;;;;;5054936;28;20219;-86
2022/12/06 06:25:46;;;;;;;31.77;17.13;;;;;;;;;;5054494;28;20815;-87
2022/12/06 06:28:15;;;;;;;32.57;18.03;;;;;;;;;;5053408;28;20247;-89
2022/12/06 06:30:43;;;;;;;47.77;27.20;;;;;;;;;;5054587;28;20764;-88
2022/12/06 06:33:11;;;;;;;25.70;14.93;;;;;;;;;;5054901;28;20207;-89
2022/12/06 06:35:39;;;;;;;54.87;31.83;;;;;;;;;;5054528;28;20238;-89
2022/12/06 06:38:07;;;;;;;28.17;15.07;;;;;;;;;;5054452;28;20586;-88
2022/12/06 06:40:35;;;;;;;42.27;24.77;;;;;;;;;;5054387;28;20199;-88
2022/12/06 06:43:16;;;;;;;38.40;22.37;;;;;;;;;;5052680;28;20729;-87
2022/12/06 06:45:46;;;;;;;88.03;53.17;;;;;;;;;;5051291;28;20265;-89
2022/12/06 06:48:13;;;;;;;40.83;23.83;;;;;;;;;;5054003;28;20223;-87
2022/12/06 06:50:40;;;;;;;31.40;19.33;;;;;;;;;;5053583;28;20232;-86
2022/12/06 06:53:08;;;;;;;45.67;34.43;;;;;;;;;;5053985;28;20210;-86
2022/12/06 06:55:36;;;;;;;28.10;15.33;;;;;;;;;;5036346;28;20200;-84
2022/12/06 06:58:03;;;;;;;34.07;20.40;;;;;;;;;;5053103;28;20582;-86
2022/12/06 07:00:31;;;;;;;34.00;20.40;;;;;;;;;;5053455;28;20675;-87
2022/12/06 07:03:00;;;;;;;35.53;22.30;;;;;;;;;;5053899;28;20262;-86
2022/12/06 07:05:27;;;;;;;33.53;21.83;;;;;;;;;;5052626;28;20207;-86
2022/12/06 07:07:56;;;;;;;34.23;22.37;;;;;;;;;;5053403;28;20226;-86
2022/12/06 07:10:24;;;;;;;28.07;17.37;;;;;;;;;;5053421;28;20306;-86
2022/12/06 07:12:52;;;;;;;28.03;16.07;;;;;;;;;;5053437;28;20275;-86
2022/12/06 07:15:20;;;;;;;38.03;26.37;;;;;;;;;;5051855;28;20294;-86
2022/12/06 07:17:47;;;;;;;29.43;17.70;;;;;;;;;;5052789;28;20281;-87
2022/12/06 07:20:16;;;;;;;29.93;17.30;;;;;;;;;;5052170;28;20641;-86
2022/12/06 07:22:43;;;;;;;29.63;16.20;;;;;;;;;;5052595;28;20664;-86
2022/12/06 07:25:11;;;;;;;29.03;16.93;;;;;;;;;;5051495;28;20282;-87
2022/12/06 07:27:38;;;;;;;26.43;14.83;;;;;;;;;;5052054;28;20202;-87
2022/12/06 07:30:06;;;;;;;28.20;16.63;;;;;;;;;;5051769;28;20687;-88
2022/12/06 07:32:34;;;;;;;30.00;16.93;;;;;;;;;;5036832;28;20237;-87
2022/12/06 07:35:02;;;;;;;29.20;17.33;;;;;;;;;;5052342;28;20226;-88
2022/12/06 07:37:34;;;;;;;30.90;18.77;;;;;;;;;;5051879;28;20231;-88
2022/12/06 07:40:01;;;;;;;29.13;16.50;;;;;;;;;;5052234;28;20664;-88
2022/12/06 07:45:28;;;;;;;27.80;15.33;;;;;;;;;;5032304;28;20677;-88
2022/12/06 07:47:55;;;;;;;26.87;16.20;;;;;;;;;;5034449;28;20239;-88
2022/12/06 07:50:23;;;;;;;28.93;16.43;;;;;;;;;;5033627;28;20303;-88
2022/12/06 07:52:52;;;;;;;26.40;15.60;;;;;;;;;;5031612;28;20337;-87
2022/12/06 07:55:20;;;;;;;27.00;15.33;;;;;;;;;;5027551;28;20204;-88
2022/12/06 07:57:47;;;;;;;28.43;16.10;;;;;;;;;;5030300;28;20262;-88
2022/12/06 08:00:15;;;;;;;33.10;19.60;;;;;;;;;;5031698;28;20258;-87
2022/12/06 08:02:43;;;;;;;36.63;22.03;;;;;;;;;;5030201;28;20212;-88
2022/12/06 08:05:10;;;;;;;33.13;20.17;;;;;;;;;;5030282;28;20274;-88
2022/12/06 08:07:38;;;;;;;35.07;20.70;;;;;;;;;;5026584;28;20237;-88
2022/12/06 08:10:08;;;;;;;29.80;17.53;;;;;;;;;;5030745;28;20220;-88
2022/12/06 08:12:36;;;;;;;28.70;16.70;;;;;;;;;;5030676;28;20665;-88
2022/12/06 08:15:03;;;;;;;23.90;14.67;;;;;;;;;;5030479;28;20252;-88
2022/12/06 08:17:32;;;;;;;26.40;15.37;;;;;;;;;;5051260;28;20211;-88
2022/12/06 08:19:59;;;;;;;29.43;17.23;;;;;;;;;;5051680;28;20219;-88
2022/12/06 08:22:26;;;;;;;29.23;17.10;;;;;;;;;;5053020;28;20734;-87
2022/12/06 08:24:54;;;;;;;37.17;21.57;;;;;;;;;;5068396;28;20218;-87
2022/12/06 08:27:23;;;;;;;32.73;18.50;;;;;;;;;;5066615;28;20250;-88
2022/12/06 08:29:50;;;;;;;33.47;19.20;;;;;;;;;;5052941;28;20743;-88
2022/12/06 08:32:17;;;;;;;30.83;16.47;;;;;;;;;;5048691;28;20278;-88
2022/12/06 08:34:45;;;;;;;27.40;16.23;;;;;;;;;;5051428;28;20306;-88
2022/12/06 08:37:12;;;;;;;28.77;18.03;;;;;;;;;;5051635;28;20261;-88
2022/12/06 08:39:39;;;;;;;25.83;16.50;;;;;;;;;;5053690;28;20226;-89
2022/12/06 08:42:07;;;;;;;26.97;17.63;;;;;;;;;;5051953;28;20266;-89
2022/12/06 08:44:36;;;;;;;28.73;17.63;;;;;;;;;;5052824;28;20671;-89
2022/12/06 08:47:04;;;;;;;33.70;18.60;;;;;;;;;;5041582;28;20656;-89
2022/12/06 08:49:31;;;;;;;25.37;15.50;;;;;;;;;;5052860;28;20243;-89
2022/12/06 08:51:59;;;;;;;30.33;17.80;;;;;;;;;;5057794;28;20193;-88
2022/12/06 08:54:27;;;;;;;24.10;16.03;;;;;;;;;;5050491;28;20221;-89
2022/12/06 08:56:54;;;;;;;23.57;15.30;;;;;;;;;;5044501;28;20740;-89
2022/12/06 08:59:22;;;;;;;26.53;17.87;;;;;;;;;;5038101;28;20187;-88
2022/12/06 09:01:50;;;;;;;23.30;15.97;;;;;;;;;;5044852;28;20742;-89
2022/12/06 09:04:18;;;;;;;23.57;15.63;;;;;;;;;;5036188;28;20754;-89
2022/12/06 09:06:46;;;;;;;23.40;15.70;;;;;;;;;;5056325;28;20283;-87
2022/12/06 09:09:14;;;;;;;23.17;16.67;;;;;;;;;;5054523;28;20224;-89
2022/12/06 09:11:42;;;;;;;33.97;21.53;;;;;;;;;;5050448;28;20746;-89
2022/12/06 09:14:10;;;;;;;52.83;30.37;;;;;;;;;;5053767;28;20204;-89
2022/12/06 09:16:38;;;;;;;21.77;14.97;;;;;;;;;;5056493;28;20204;-89
2022/12/06 09:19:07;;;;;;;32.77;21.80;;;;;;;;;;5056101;28;20196;-89
2022/12/06 09:21:35;;;;;;;37.10;23.87;;;;;;;;;;5056096;28;20226;-89
2022/12/06 09:24:02;;;;;;;149.37;80.03;;;;;;;;;;5056594;28;20207;-88
2022/12/06 09:26:29;;;;;;;24.03;17.77;;;;;;;;;;5055761;28;20554;-89
2022/12/06 09:28:57;;;;;;;42.27;27.47;;;;;;;;;;5050299;28;20297;-89
2022/12/06 09:31:25;;;;;;;28.20;20.27;;;;;;;;;;5056496;28;20200;-89
2022/12/06 09:33:53;;;;;;;21.13;15.00;;;;;;;;;;5056738;28;20206;-87
2022/12/06 09:36:23;;;;;;;27.03;18.90;;;;;;;;;;5056001;28;20640;-88
2022/12/06 09:38:53;;;;;;;31.67;21.83;;;;;;;;;;5055037;28;20232;-89
2022/12/06 09:41:28;;;;;;;34.93;23.33;;;;;;;;;;5058854;28;20241;-88
2022/12/06 09:44:04;;;;;;;22.73;15.70;;;;;;;;;;5050453;28;20274;-88
2022/12/06 09:46:41;;;;;;;21.13;15.23;;;;;;;;;;5054451;28;20199;-87
2022/12/06 09:49:16;;;;;;;21.43;15.40;;;;;;;;;;5056341;28;20210;-88
2022/12/06 09:51:50;;;;;;;19.57;14.67;;;;;;;;;;5055355;28;20251;-87
2022/12/06 09:54:24;;;;;;;21.27;14.50;;;;;;;;;;5056237;28;20203;-88
2022/12/06 09:56:55;;;;;;;22.07;15.30;;;;;;;;;;5043550;28;20207;-88
2022/12/06 09:59:29;;;;;;;22.03;15.17;;;;;;;;;;5047865;28;20276;-88
2022/12/06 10:02:02;;;;;;;27.27;19.93;;;;;;;;;;5053920;28;20207;-89
2022/12/06 10:04:42;;;;;;;27.67;20.43;;;;;;;;;;5055524;28;20200;-89
2022/12/06 10:07:15;;;;;;;21.37;15.57;;;;;;;;;;5053548;28;20609;-89
2022/12/06 10:09:44;;;;;;;25.43;18.13;;;;;;;;;;5054796;28;20226;-88
2022/12/06 10:12:21;;;;;;;25.60;17.03;;;;;;;;;;5055365;28;20756;-88
2022/12/06 10:14:59;;;;;;;22.50;16.23;;;;;;;;;;5066778;28;20206;-88
2022/12/06 10:17:30;;;;;;;21.17;15.50;;;;;;;;;;5057401;28;20202;-88
2022/12/06 10:20:03;;;;;;;19.53;14.20;;;;;;;;;;5056355;28;20199;-89
2022/12/06 10:22:34;;;;;;;21.47;15.17;;;;;;;;;;5063843;28;20234;-89
2022/12/06 10:25:04;;;;;;;22.17;14.80;;;;;;;;;;5053940;28;20200;-88
2022/12/06 10:27:37;;;;;;;20.53;14.97;;;;;;;;;;5054879;28;20265;-89
2022/12/06 10:30:05;;;;;;;26.53;18.67;;;;;;;;;;4704180;28;9999612;-88
2022/12/06 10:32:42;;;;;;;22.70;15.17;;;;;;;;;;5053238;28;20214;-89
2022/12/06 10:35:16;;;;;;;21.77;15.43;;;;;;;;;;5053002;28;20238;-88
2022/12/06 10:37:50;;;;;;;21.37;15.17;;;;;;;;;;5053214;28;20769;-88
2022/12/06 10:40:23;;;;;;;20.33;14.63;;;;;;;;;;5034830;28;20219;-89
2022/12/06 10:42:56;;;;;;;21.33;14.87;;;;;;;;;;5050234;28;20210;-88
2022/12/06 10:48:40;;;;;;;30.53;20.83;;;;;;;;;;5051339;28;20261;-88
2022/12/06 10:51:10;;;;;;;22.73;16.70;;;;;;;;;;5053235;28;20231;-88
2022/12/06 10:53:41;;;;;;;26.20;18.73;;;;;;;;;;5038338;28;20203;-88
2022/12/06 10:56:13;;;;;;;20.97;16.00;;;;;;;;;;5053555;28;20200;-88
2022/12/06 10:58:44;;;;;;;20.53;15.03;;;;;;;;;;5053243;28;20203;-88
2022/12/06 11:01:14;;;;;;;22.80;16.23;;;;;;;;;;5053522;28;20656;-87
2022/12/06 11:03:51;;;;;;;21.63;15.10;;;;;;;;;;5052880;28;20211;-88
2022/12/06 11:06:28;;;;;;;20.77;15.80;;;;;;;;;;5038077;28;20219;-88
2022/12/06 11:12:26;;;;;;;18.93;15.33;;;;;;;;;;5053633;28;20337;-88
2022/12/06 11:20:57;;;;;;;18.73;14.07;;;;;;;;;;5034074;28;20690;-88
2022/12/06 11:23:26;;;;;;;19.93;14.30;;;;;;;;;;5049098;28;20249;-87
2022/12/06 11:26:02;;;;;;;18.80;13.70;;;;;;;;;;5051576;28;20199;-87
2022/12/06 11:28:35;;;;;;;18.63;13.97;;;;;;;;;;5051454;28;20600;-87
2022/12/06 11:31:06;;;;;;;19.63;14.87;;;;;;;;;;5051982;28;20215;-88
2022/12/06 11:33:34;;;;;;;27.70;19.07;;;;;;;;;;5051976;28;20250;-88
2022/12/06 11:36:03;;;;;;;23.33;16.77;;;;;;;;;;5052961;28;20203;-88
2022/12/06 11:38:31;;;;;;;21.60;15.83;;;;;;;;;;5051939;28;20231;-89
2022/12/06 11:40:58;;;;;;;21.37;16.40;;;;;;;;;;5052995;28;20571;-89
2022/12/06 11:43:26;;;;;;;22.93;16.57;;;;;;;;;;5052893;28;20226;-89
2022/12/06 11:45:55;;;;;;;25.53;17.87;;;;;;;;;;5052227;28;20341;-88
2022/12/06 11:48:25;;;;;;;25.50;18.43;;;;;;;;;;5052812;28;20200;-89
2022/12/06 11:50:53;;;;;;;23.50;17.20;;;;;;;;;;5052389;28;20277;-89
2022/12/06 11:53:24;;;;;;;20.47;15.47;;;;;;;;;;5052482;28;20258;-88
2022/12/06 11:56:11;;;;;;;21.93;17.17;;;;;;;;;;5052396;28;20261;-88
2022/12/06 11:58:40;;;;;;;22.20;16.40;;;;;;;;;;5051750;28;20585;-87
2022/12/06 12:01:09;;;;;;;20.80;15.27;;;;;;;;;;5052257;28;20196;-88
2022/12/06 12:03:39;;;;;;;21.67;16.10;;;;;;;;;;5051531;28;20208;-88
2022/12/06 12:06:16;;;;;;;22.30;16.17;;;;;;;;;;5050704;28;20277;-87
2022/12/06 12:08:56;;;;;;;21.37;15.93;;;;;;;;;;5051694;28;20207;-86
2022/12/06 12:11:25;;;;;;;21.97;16.10;;;;;;;;;;5041887;28;20243;-87
2022/12/06 12:13:53;;;;;;;20.97;15.33;;;;;;;;;;5051286;28;20249;-87
2022/12/06 12:16:21;;;;;;;21.43;15.73;;;;;;;;;;5051994;28;20569;-87
2022/12/06 12:18:55;;;;;;;21.20;15.60;;;;;;;;;;5051383;28;20238;-87
2022/12/06 12:21:39;;;;;;;20.30;15.67;;;;;;;;;;5051822;28;20199;-87
2022/12/06 12:24:07;;;;;;;21.17;16.27;;;;;;;;;;5051788;28;20253;-87
2022/12/06 12:26:36;;;;;;;20.17;15.43;;;;;;;;;;5051883;28;20258;-87
2022/12/06 12:29:04;;;;;;;19.73;15.07;;;;;;;;;;5050686;28;20243;-87
2022/12/06 12:31:32;;;;;;;20.50;15.03;;;;;;;;;;5050994;28;20254;-87
2022/12/06 12:34:15;;;;;;;21.90;16.07;;;;;;;;;;5051370;28;20253;-87
2022/12/06 12:36:47;;;;;;;19.60;15.13;;;;;;;;;;5051513;28;20246;-88
2022/12/06 12:39:22;;;;;;;21.17;15.43;;;;;;;;;;5051720;28;20263;-87
2022/12/06 12:41:59;;;;;;;19.77;15.07;;;;;;;;;;5053962;28;20203;-87
2022/12/06 12:44:28;;;;;;;19.37;14.67;;;;;;;;;;5052580;28;20249;-87
2022/12/06 12:46:56;;;;;;;19.50;15.07;;;;;;;;;;5058203;28;20215;-87
2022/12/06 12:49:32;;;;;;;16.23;12.53;;;;;;;;;;5053209;28;20231;-87
2022/12/06 12:52:00;;;;;;;17.53;13.20;;;;;;;;;;5052176;28;20278;-87
2022/12/06 12:54:29;;;;;;;17.27;13.47;;;;;;;;;;5057103;28;20245;-87
2022/12/06 12:56:57;;;;;;;17.50;13.47;;;;;;;;;;5052650;28;20559;-87
2022/12/06 12:59:26;;;;;;;18.30;13.13;;;;;;;;;;5049411;28;20207;-87
2022/12/06 13:01:56;;;;;;;18.53;13.70;;;;;;;;;;5035079;28;20257;-87
2022/12/06 13:04:40;;;;;;;18.23;13.40;;;;;;;;;;5051720;28;20208;-87
2022/12/06 13:07:12;;;;;;;17.97;13.57;;;;;;;;;;5045055;28;20203;-87
2022/12/06 13:09:44;;;;;;;19.53;14.73;;;;;;;;;;5053912;28;21631;-87
2022/12/06 13:12:13;;;;;;;18.83;13.67;;;;;;;;;;5072147;28;20317;-86
2022/12/06 13:14:45;;;;;;;21.07;14.80;;;;;;;;;;5059425;28;20200;-86
2022/12/06 13:17:13;;;;;;;19.97;14.47;;;;;;;;;;5039741;28;20200;-87
2022/12/06 13:19:42;;;;;;;21.63;16.17;;;;;;;;;;5053167;28;20199;-86
2022/12/06 13:22:16;;;;;;;20.53;15.03;;;;;;;;;;5052495;28;20199;-87
2022/12/06 13:24:45;;;;;;;15.77;11.63;;;;;;;;;;5051243;28;20291;-86
2022/12/06 13:27:15;;;;;;;16.10;11.77;;;;;;;;;;5051359;28;20231;-87
2022/12/06 13:29:44;;;;;;;15.90;12.47;;;;;;;;;;5049516;28;20715;-87
2022/12/06 13:32:14;;;;;;;16.00;11.20;;;;;;;;;;5052090;28;20277;-87
2022/12/06 13:34:45;;;;;;;15.97;11.83;;;;;;;;;;5052229;28;20200;-87
2022/12/06 13:37:27;;;;;;;17.27;12.53;;;;;;;;;;5051600;28;20207;-87
2022/12/06 13:39:56;;;;;;;16.67;12.80;;;;;;;;;;5050311;28;20199;-86
2022/12/06 13:42:40;;;;;;;15.73;11.80;;;;;;;;;;5053243;28;20200;-87
2022/12/06 13:45:27;;;;;;;16.00;12.30;;;;;;;;;;5049031;28;20223;-87
2022/12/06 13:47:55;;;;;;;15.53;11.50;;;;;;;;;;5051328;28;20195;-87
2022/12/06 13:50:41;;;;;;;24.93;16.93;;;;;;;;;;5052935;28;20192;-87
2022/12/06 13:53:08;;;;;;;20.67;14.43;;;;;;;;;;5054494;28;20208;-87
2022/12/06 13:55:50;;;;;;;18.13;13.07;;;;;;;;;;5054983;28;20195;-87
2022/12/06 13:58:36;;;;;;;48.07;27.90;;;;;;;;;;5056105;28;20655;-87
2022/12/06 14:01:03;;;;;;;16.77;12.03;;;;;;;;;;5054946;28;20204;-87
2022/12/06 14:03:42;;;;;;;13.77;10.17;;;;;;;;;;5054737;28;20215;-87
2022/12/06 14:06:10;;;;;;;18.70;13.90;;;;;;;;;;5054985;28;20222;-87
2022/12/06 14:08:39;;;;;;;12.27;9.77;;;;;;;;;;5065537;28;20210;-87
2022/12/06 14:11:21;;;;;;;15.23;11.33;;;;;;;;;;5049410;28;20220;-86
2022/12/06 14:14:00;;;;;;;14.20;9.93;;;;;;;;;;4701724;28;10000937;-87
2022/12/06 14:17:02;;;;;;;26.13;16.93;;;;;;;;;;5055375;28;20241;-87
2022/12/06 14:28:44;;;;;;;14.73;9.13;;;;;;;;;;5054437;28;20337;-87
2022/12/06 14:31:21;;;;;;;36.83;19.93;;;;;;;;;;5053324;28;20269;-86
2022/12/06 14:33:48;;;;;;;15.77;9.37;;;;;;;;;;5052569;28;20211;-87
2022/12/06 14:36:18;;;;;;;22.10;12.13;;;;;;;;;;5053499;28;20201;-86
2022/12/06 14:38:51;;;;;;;12.40;8.97;;;;;;;;;;5052657;28;20234;-87
2022/12/06 14:44:11;;;;;;;19.27;11.90;;;;;;;;;;5053019;28;20214;-87
2022/12/06 14:46:40;;;;;;;15.43;10.00;;;;;;;;;;5052819;28;20232;-87
2022/12/06 14:51:55;;;;;;;12.53;8.60;;;;;;;;;;5053249;28;20240;-86
2022/12/06 14:54:32;;;;;;;13.40;9.40;;;;;;;;;;5040423;28;20196;-86
2022/12/06 14:57:00;;;;;;;11.93;8.53;;;;;;;;;;5051234;28;20191;-87
2022/12/06 14:59:28;;;;;;;12.27;8.90;;;;;;;;;;5052474;28;20203;-86
2022/12/06 15:01:57;;;;;;;14.47;9.30;;;;;;;;;;5052331;28;20253;-87
2022/12/06 15:04:26;;;;;;;12.10;8.57;;;;;;;;;;5046291;28;20291;-87
2022/12/06 15:06:54;;;;;;;17.27;11.17;;;;;;;;;;5052934;28;20204;-87
2022/12/06 15:09:21;;;;;;;13.33;8.80;;;;;;;;;;5052926;28;20745;-87
2022/12/06 15:14:46;;;;;;;13.83;9.10;;;;;;;;;;5049769;28;20202;-86
2022/12/06 15:17:18;;;;;;;13.30;9.20;;;;;;;;;;5053254;28;20195;-87
2022/12/06 15:19:46;;;;;;;14.80;9.93;;;;;;;;;;5048466;28;20196;-87
2022/12/06 15:22:16;;;;;;;12.77;9.33;;;;;;;;;;5053280;28;20253;-87
2022/12/06 15:24:44;;;;;;;13.97;9.87;;;;;;;;;;5051861;28;20282;-86